EEST,Max TemperatureF,Mean TemperatureF,Min TemperatureF,Max Dew PointF,MeanDew PointF,Min DewpointF,Max Humidity, Mean Humidity, Min Humidity, Max Sea Level PressureIn, Mean Sea Level PressureIn, Min Sea Level PressureIn, Max VisibilityMiles, Mean VisibilityMiles, Min VisibilityMiles, Max Wind SpeedMPH, Mean Wind SpeedMPH, Max Gust SpeedMPH,PrecipitationIn, CloudCover, Events, WindDirDegrees
2013-3-1,39,34,28,34,31,25,100,86,70,29.92,29.84,29.77,5,4,1,13,6,,0.28,6,Fog-Rain-Snow,22
2013-3-2,37,32,28,32,28,21,100,82,42,30.12,30.02,29.92,6,5,2,13,6,,0.00,5,Snow,9
2013-3-3,41,34,26,32,24,17,81,60,30,30.15,30.08,29.98,6,5,4,14,6,,0.00,5,,353
2013-3-4,52,44,35,39,35,30,93,72,36,29.95,29.80,29.68,6,6,4,18,7,26,0.04,6,Rain-Snow,205
2013-3-5,41,32,23,36,29,21,100,92,75,29.89,29.80,29.74,5,3,0,17,8,,0.03,7,Fog-Snow,2
2013-3-6,28,22,17,23,14,7,100,71,31,30.18,30.07,29.89,6,5,1,16,7,,0.00,5,Snow,72
2013-3-7,30,22,13,18,12,6,86,62,36,30.27,30.24,30.18,12,6,4,7,4,,0.00,1,,101
2013-3-8,31,22,14,25,18,9,86,71,44,30.24,30.17,30.09,7,6,4,7,4,,0.00,3,,66
2013-3-9,38,30,23,28,25,21,93,75,53,30.06,29.98,29.92,6,4,2,7,4,,0.00,3,,220
2013-3-10,42,32,23,30,25,21,93,71,49,29.95,29.93,29.89,6,6,4,9,4,,0.00,2,,230
2013-3-11,42,33,24,30,27,23,93,76,53,30.01,29.97,29.92,6,6,2,9,3,,0.00,1,,353
2013-3-12,49,38,28,39,34,26,87,73,57,30.06,30.02,29.95,6,6,4,10,5,,0.03,5,Rain,357
2013-3-13,58,50,41,39,35,32,87,60,43,30.06,29.97,29.89,6,5,4,17,9,,0.00,6,Rain,183
2013-3-14,54,44,35,41,36,32,87,70,46,30.15,30.04,29.95,6,4,2,8,4,,0.00,6,,289
2013-3-15,55,42,33,41,36,25,93,73,31,30.24,30.21,30.09,7,5,4,20,4,,0.00,3,,263
2013-3-16,61,50,39,39,36,23,81,58,26,30.15,30.05,29.86,7,6,6,33,15,45,0.04,6,Rain,152
2013-3-17,50,42,33,40,36,27,100,75,50,29.89,29.74,29.68,7,5,4,28,19,38,0.28,6,Rain-Snow,166
2013-3-18,41,36,30,30,25,19,81,68,37,29.95,29.87,29.77,6,6,4,18,9,,0.01,6,Snow,281
2013-3-19,40,34,29,27,24,19,86,65,42,30.06,30.02,29.95,7,6,6,12,5,,0.00,3,,310
2013-3-20,42,34,25,30,28,25,93,74,51,30.09,30.04,30.01,6,6,6,10,4,,0.00,5,,228
2013-3-21,46,36,25,34,29,23,93,73,49,30.12,30.10,30.06,7,6,6,10,4,,0.00,1,,13
2013-3-22,48,38,28,34,29,16,87,65,27,30.09,29.95,29.74,6,6,6,21,4,36,0.00,4,,275
2013-3-23,54,43,32,35,31,25,100,62,26,29.71,29.66,29.59,6,4,2,30,19,39,0.08,5,Rain-Snow,210
2013-3-24,37,34,30,32,25,19,100,70,41,30.06,29.84,29.65,7,5,2,25,12,,0.00,6,Snow,279
2013-3-25,41,32,22,27,23,19,86,63,40,30.18,30.14,30.06,7,6,6,9,6,,0.00,1,,263
2013-3-26,43,35,27,34,30,25,93,76,57,30.12,30.07,30.01,7,6,4,9,4,,0.00,5,,255
2013-3-27,56,44,31,37,25,14,87,43,18,29.98,29.88,29.80,6,5,4,25,12,37,0.01,6,Rain,166
2013-3-28,48,40,32,39,35,30,93,76,48,30.04,30.00,29.95,7,6,6,12,5,,0.03,5,Rain,311
2013-3-29,49,42,35,39,37,34,93,79,60,30.12,30.06,30.01,7,6,6,9,4,,0.00,5,,237
2013-3-30,51,42,32,39,33,27,93,71,46,30.21,30.17,30.12,6,6,6,12,3,,0.00,3,,5
2013-3-31,53,41,29,39,33,27,87,69,48,30.24,30.22,30.21,7,6,6,9,4,,0.00,1,,242
2013-4-1,,,,,,,,,,,,,,,,,,,,,,